createdAt,value
2019-02-14T00:05:57.227Z,-1.40
2019-02-14T00:10:49.809Z,-1.40
2019-02-14T00:15:42.254Z,-1.40
2019-02-14T00:20:34.608Z,-1.50
2019-02-14T00:25:26.761Z,-1.60
2019-02-14T00:30:19.234Z,-1.60
2019-02-14T00:35:11.669Z,-1.70
2019-02-14T00:40:05.937Z,-1.60
2019-02-14T00:44:58.406Z,-1.70
2019-02-14T00:49:50.860Z,-1.60
2019-02-14T00:54:43.224Z,-1.70
2019-02-14T00:59:35.917Z,-1.70
2019-02-14T01:04:28.292Z,-1.70
2019-02-14T01:09:21.117Z,-1.70
2019-02-14T01:14:13.765Z,-1.80
2019-02-14T01:19:06.007Z,-1.80
2019-02-14T01:23:59.324Z,-1.90
2019-02-14T01:28:52.236Z,-1.90
2019-02-14T01:33:44.948Z,-1.90
2019-02-14T01:38:37.653Z,-2.00
2019-02-14T01:43:30.317Z,-2.00
2019-02-14T01:48:22.857Z,-2.00
2019-02-14T01:53:15.277Z,-2.00
2019-02-14T01:58:07.659Z,-2.00
2019-02-14T02:03:00.393Z,-2.10
2019-02-14T02:07:52.943Z,-2.10
2019-02-14T02:12:45.644Z,-2.00
2019-02-14T02:17:38.517Z,-2.10
2019-02-14T02:22:31.070Z,-2.20
2019-02-14T02:27:23.821Z,-2.20
2019-02-14T02:32:16.530Z,-2.20
2019-02-14T02:37:09.386Z,-2.30
2019-02-14T02:42:01.424Z,-2.30
2019-02-14T02:46:53.605Z,-2.30
2019-02-14T02:51:46.215Z,-2.30
2019-02-14T02:56:38.863Z,-2.40
2019-02-14T03:01:31.113Z,-2.30
2019-02-14T03:06:23.484Z,-2.30
2019-02-14T03:11:15.797Z,-2.40
2019-02-14T03:16:08.161Z,-2.40
2019-02-14T03:21:00.577Z,-2.50
2019-02-14T03:25:52.970Z,-2.50
2019-02-14T03:30:45.750Z,-2.50
2019-02-14T03:35:38.359Z,-2.50
2019-02-14T03:40:31.071Z,-2.60
2019-02-14T03:45:23.727Z,-2.60
2019-02-14T03:50:16.372Z,-2.60
2019-02-14T03:55:12.041Z,-2.70
2019-02-14T04:00:09.585Z,-2.70
2019-02-14T04:05:01.994Z,-2.70
2019-02-14T04:09:54.658Z,-2.80
2019-02-14T04:14:47.233Z,-2.80
2019-02-14T04:19:39.770Z,-2.80
2019-02-14T04:24:32.137Z,-2.90
2019-02-14T04:29:24.668Z,-2.90
2019-02-14T04:34:17.448Z,-2.90
2019-02-14T04:39:10.117Z,-2.90
2019-02-14T04:44:03.915Z,-2.90
2019-02-14T04:48:56.640Z,-2.90
2019-02-14T04:53:50.594Z,-3.00
2019-02-14T04:58:43.908Z,-3.10
2019-02-14T05:03:36.293Z,-3.10
2019-02-14T05:08:28.992Z,-3.20
2019-02-14T05:13:21.872Z,-3.20
2019-02-14T05:18:14.232Z,-3.10
2019-02-14T05:23:06.889Z,-3.10
2019-02-14T05:27:59.300Z,-3.00
2019-02-14T05:32:51.685Z,-3.10
2019-02-14T05:37:44.345Z,-3.10
2019-02-14T05:42:37.047Z,-3.20
2019-02-14T05:47:29.757Z,-3.10
2019-02-14T05:52:22.109Z,-3.10
2019-02-14T05:57:14.766Z,-3.10
2019-02-14T06:02:07.207Z,-3.10
2019-02-14T06:07:01.336Z,-3.20
2019-02-14T06:11:53.822Z,-3.20
2019-02-14T06:16:46.096Z,-3.20
2019-02-14T06:21:38.527Z,-3.20
2019-02-14T06:26:31.051Z,-3.20
2019-02-14T06:31:23.700Z,-3.20
2019-02-14T06:36:16.007Z,-3.20
2019-02-14T06:41:08.774Z,-3.20
2019-02-14T06:46:01.092Z,-3.20
2019-02-14T06:50:53.689Z,-3.20
2019-02-14T06:55:46.012Z,-3.20
2019-02-14T07:00:38.540Z,-3.20
2019-02-14T07:05:30.994Z,-3.20
2019-02-14T07:10:23.676Z,-3.20
2019-02-14T07:15:16.068Z,-2.70
2019-02-14T07:20:11.650Z,-1.10
2019-02-14T07:25:03.937Z,0.70
2019-02-14T07:29:56.697Z,2.20
2019-02-14T07:34:49.367Z,3.60
2019-02-14T07:39:41.950Z,4.50
2019-02-14T07:44:34.611Z,5.30
2019-02-14T07:49:27.156Z,5.70
2019-02-14T07:54:19.746Z,5.90
2019-02-14T07:59:12.081Z,6.90
2019-02-14T08:04:04.477Z,8.00
2019-02-14T08:08:56.988Z,8.90
2019-02-14T08:13:49.605Z,9.70
2019-02-14T08:18:42.201Z,10.20
2019-02-14T08:23:34.625Z,10.60
2019-02-14T08:28:27.233Z,11.90
2019-02-14T08:33:19.517Z,12.70
2019-02-14T08:38:12.045Z,13.30
2019-02-14T08:43:04.710Z,13.40
2019-02-14T08:47:57.294Z,13.10
2019-02-14T08:52:49.576Z,13.40
2019-02-14T08:57:41.993Z,14.00
2019-02-14T09:02:34.499Z,14.30
2019-02-14T09:07:27.223Z,14.30
2019-02-14T09:12:19.569Z,15.60
2019-02-14T09:17:12.035Z,16.40
2019-02-14T09:22:05.018Z,16.90
2019-02-14T09:26:57.545Z,17.00
2019-02-14T09:31:49.904Z,17.50
2019-02-14T09:36:42.598Z,18.80
2019-02-14T09:41:35.535Z,20.10
2019-02-14T09:46:27.945Z,21.50
2019-02-14T09:51:20.470Z,21.10
2019-02-14T09:56:12.934Z,20.20
2019-02-14T10:01:05.312Z,19.80
2019-02-14T10:05:57.980Z,19.60
2019-02-14T10:10:50.414Z,20.00
2019-02-14T10:15:42.961Z,21.40
2019-02-14T10:20:35.505Z,22.10
2019-02-14T10:25:27.933Z,22.70
2019-02-14T10:30:21.626Z,22.90
2019-02-14T10:35:14.064Z,23.00
2019-02-14T10:40:09.389Z,23.30
2019-02-14T10:45:01.984Z,23.70
2019-02-14T10:49:54.553Z,23.10
2019-02-14T10:54:47.325Z,22.60
2019-02-14T10:59:39.821Z,22.80
2019-02-14T11:04:32.410Z,21.90
2019-02-14T11:09:24.931Z,20.80
2019-02-14T11:14:17.490Z,19.00
2019-02-14T11:19:10.005Z,17.40
2019-02-14T11:24:02.645Z,17.50
2019-02-14T11:28:55.434Z,17.40
2019-02-14T11:33:47.905Z,17.10
2019-02-14T11:38:40.982Z,16.60
2019-02-14T11:43:33.676Z,16.10
2019-02-14T11:48:26.442Z,16.30
2019-02-14T11:53:18.795Z,16.90
2019-02-14T11:58:11.153Z,16.80
2019-02-14T12:03:03.945Z,16.30
2019-02-14T12:07:56.804Z,17.70
2019-02-14T12:12:49.189Z,19.90
2019-02-14T12:17:41.957Z,21.10
2019-02-14T12:22:34.200Z,21.10
2019-02-14T12:27:26.778Z,22.20
2019-02-14T12:32:19.370Z,22.60
2019-02-14T12:37:11.801Z,21.10
2019-02-14T12:42:04.551Z,18.70
2019-02-14T12:46:57.315Z,16.50
2019-02-14T12:51:49.648Z,16.00
2019-02-14T12:56:42.045Z,15.20
2019-02-14T13:01:34.866Z,14.10
2019-02-14T13:06:27.419Z,13.80
2019-02-14T13:11:20.034Z,14.90
2019-02-14T13:16:12.816Z,15.40
2019-02-14T13:21:05.276Z,14.90
2019-02-14T13:25:57.681Z,14.30
2019-02-14T13:30:50.081Z,14.10
2019-02-14T13:35:42.942Z,14.30
2019-02-14T13:40:35.510Z,14.40
2019-02-14T13:45:27.755Z,15.10
2019-02-14T13:50:20.347Z,15.90
2019-02-14T13:55:13.118Z,16.30
2019-02-14T14:00:14.421Z,15.40
2019-02-14T14:05:07.198Z,13.90
2019-02-14T14:09:59.959Z,12.90
2019-02-14T14:14:52.441Z,12.70
2019-02-14T14:19:44.921Z,12.40
2019-02-14T14:24:37.333Z,12.30
2019-02-14T14:29:29.481Z,12.10
2019-02-14T14:34:21.727Z,11.70
2019-02-14T14:39:14.664Z,11.50
2019-02-14T14:44:08.376Z,11.40
2019-02-14T14:49:00.729Z,11.40
2019-02-14T14:53:53.341Z,11.40
2019-02-14T14:58:46.003Z,11.40
2019-02-14T15:03:40.515Z,11.30
2019-02-14T15:08:32.417Z,11.10
2019-02-14T15:13:25.101Z,10.80
2019-02-14T15:18:17.793Z,10.50
2019-02-14T15:23:10.272Z,10.30
2019-02-14T15:28:03.084Z,10.30
2019-02-14T15:32:55.955Z,10.30
2019-02-14T15:37:48.772Z,10.20
2019-02-14T15:42:41.299Z,10.30
2019-02-14T15:47:33.998Z,10.20
2019-02-14T15:52:27.461Z,10.10
2019-02-14T15:57:20.503Z,10.00
2019-02-14T16:02:12.955Z,9.90
2019-02-14T16:07:05.807Z,9.70
2019-02-14T16:11:58.485Z,9.60
2019-02-14T16:16:51.272Z,9.50
2019-02-14T16:21:43.771Z,9.20
2019-02-14T16:26:37.237Z,8.90
2019-02-14T16:31:30.636Z,8.60
2019-02-14T16:36:23.558Z,8.20
2019-02-14T16:41:16.001Z,7.80
2019-02-14T16:46:08.789Z,7.50
2019-02-14T16:51:01.474Z,7.20
2019-02-14T16:56:01.891Z,6.90
2019-02-14T17:00:48.540Z,6.70
2019-02-14T17:05:40.902Z,6.40
2019-02-14T17:10:36.929Z,6.20
2019-02-14T17:15:27.778Z,5.80
2019-02-14T17:20:19.937Z,5.60
2019-02-14T17:25:12.270Z,5.30
2019-02-14T17:30:06.065Z,5.20
2019-02-14T17:34:58.717Z,5.10
2019-02-14T17:39:51.446Z,4.90
2019-02-14T17:44:43.950Z,4.60
2019-02-14T17:49:36.510Z,4.50
2019-02-14T17:54:28.966Z,4.40
2019-02-14T17:59:21.814Z,4.20
2019-02-14T18:04:14.783Z,4.00
2019-02-14T18:09:07.743Z,3.90
2019-02-14T18:14:00.516Z,3.90
2019-02-14T18:18:53.005Z,3.80
2019-02-14T18:23:45.468Z,3.70
2019-02-14T18:28:38.090Z,3.60
2019-02-14T18:33:30.775Z,3.40
2019-02-14T18:38:23.356Z,3.40
2019-02-14T18:43:16.057Z,3.30
2019-02-14T18:48:08.464Z,3.20
2019-02-14T18:53:01.508Z,3.00
2019-02-14T18:57:54.112Z,2.90
2019-02-14T19:02:46.730Z,2.80
2019-02-14T19:07:39.335Z,2.60
2019-02-14T19:12:31.682Z,2.50
2019-02-14T19:17:24.441Z,2.40
2019-02-14T19:22:16.585Z,2.30
2019-02-14T19:27:08.983Z,2.20
2019-02-14T19:32:01.233Z,2.00
2019-02-14T19:36:53.853Z,2.00
2019-02-14T19:41:46.517Z,1.90
2019-02-14T19:46:38.917Z,1.90
2019-02-14T19:51:31.417Z,1.80
2019-02-14T19:56:24.151Z,1.70
2019-02-14T20:01:16.469Z,1.60
2019-02-14T20:06:08.798Z,1.50
2019-02-14T20:11:01.458Z,1.50
2019-02-14T20:15:54.145Z,1.40
2019-02-14T20:20:46.597Z,1.20
2019-02-14T20:25:39.030Z,1.10
2019-02-14T20:30:31.752Z,1.10
2019-02-14T20:35:24.194Z,1.00
2019-02-14T20:40:16.504Z,1.00
2019-02-14T20:45:13.845Z,0.90
2019-02-14T20:50:09.858Z,0.90
2019-02-14T20:55:02.417Z,0.90
2019-02-14T20:59:55.195Z,0.90
2019-02-14T21:04:47.520Z,0.80
2019-02-14T21:09:40.009Z,0.80
2019-02-14T21:14:32.902Z,0.80
2019-02-14T21:19:25.291Z,0.70
2019-02-14T21:24:17.990Z,0.70
2019-02-14T21:29:10.404Z,0.60
2019-02-14T21:34:03.388Z,0.50
2019-02-14T21:38:56.198Z,0.50
2019-02-14T21:43:48.791Z,0.40
2019-02-14T21:48:40.907Z,0.30
2019-02-14T21:53:33.813Z,0.30
2019-02-14T21:58:26.198Z,0.30
2019-02-14T22:03:18.401Z,0.20
2019-02-14T22:08:10.936Z,0.20
2019-02-14T22:13:03.640Z,0.10
2019-02-14T22:17:56.221Z,0.10
2019-02-14T22:22:48.957Z,0.00
2019-02-14T22:27:42.084Z,-0.10
2019-02-14T22:32:34.378Z,-0.10
2019-02-14T22:37:26.909Z,-0.10
2019-02-14T22:42:19.403Z,-0.10
2019-02-14T22:47:12.266Z,-0.10
2019-02-14T22:52:04.880Z,-0.10
2019-02-14T22:56:57.492Z,-0.10
2019-02-14T23:01:50.882Z,-0.20
2019-02-14T23:06:42.974Z,-0.20
2019-02-14T23:11:35.665Z,-0.20
2019-02-14T23:16:28.216Z,-0.20
2019-02-14T23:21:21.049Z,-0.20
2019-02-14T23:26:13.424Z,-0.30
2019-02-14T23:31:05.890Z,-0.30
2019-02-14T23:35:58.291Z,-0.40
2019-02-14T23:40:50.877Z,-0.40
2019-02-14T23:45:43.303Z,-0.40
2019-02-14T23:50:35.765Z,-0.40
2019-02-14T23:55:28.592Z,-0.50
